sensor_id;sensor_type;location;lat;lon;timestamp;P1;durP1;ratioP1;P2;durP2;ratioP2
53925;SDS011;39836;52.754;6.866;2023-06-26T09:16:04;4.75;;;1.85;;
53925;SDS011;39836;52.754;6.866;2023-06-26T09:18:36;8.32;;;2.15;;
53925;SDS011;39836;52.754;6.866;2023-06-26T09:21:08;7.38;;;2.30;;
53925;SDS011;39836;52.754;6.866;2023-06-26T09:23:44;5.30;;;2.08;;
53925;SDS011;39836;52.754;6.866;2023-06-26T09:26:10;4.95;;;1.90;;
53925;SDS011;39836;52.754;6.866;2023-06-26T09:28:36;6.85;;;2.17;;
53925;SDS011;39836;52.754;6.866;2023-06-26T09:31:04;6.40;;;1.92;;
53925;SDS011;39836;52.754;6.866;2023-06-26T09:33:34;5.35;;;1.85;;
53925;SDS011;39836;52.754;6.866;2023-06-26T09:36:07;9.20;;;2.30;;
53925;SDS011;39836;52.754;6.866;2023-06-26T09:38:35;8.63;;;2.70;;
53925;SDS011;39836;52.754;6.866;2023-06-26T09:41:01;5.95;;;2.28;;
53925;SDS011;39836;52.754;6.866;2023-06-26T09:43:27;7.68;;;2.38;;
53925;SDS011;39836;52.754;6.866;2023-06-26T09:45:53;6.88;;;2.15;;
53925;SDS011;39836;52.754;6.866;2023-06-26T09:48:20;8.63;;;2.28;;
53925;SDS011;39836;52.754;6.866;2023-06-26T09:50:46;8.95;;;2.30;;
53925;SDS011;39836;52.754;6.866;2023-06-26T09:53:13;9.93;;;2.67;;
53925;SDS011;39836;52.754;6.866;2023-06-26T09:55:39;10.00;;;2.30;;
53925;SDS011;39836;52.754;6.866;2023-06-26T09:58:09;8.85;;;2.53;;
53925;SDS011;39836;52.754;6.866;2023-06-26T10:00:39;6.10;;;2.22;;
53925;SDS011;39836;52.754;6.866;2023-06-26T10:03:06;6.78;;;2.20;;
53925;SDS011;39836;52.754;6.866;2023-06-26T10:05:33;9.35;;;2.67;;
53925;SDS011;39836;52.754;6.866;2023-06-26T10:07:59;11.00;;;3.33;;
53925;SDS011;39836;52.754;6.866;2023-06-26T10:10:26;9.30;;;2.30;;
53925;SDS011;39836;52.754;6.866;2023-06-26T10:12:54;8.77;;;2.15;;
53925;SDS011;39836;52.754;6.866;2023-06-26T10:15:24;7.68;;;2.67;;
53925;SDS011;39836;52.754;6.866;2023-06-26T10:17:52;8.20;;;2.45;;
53925;SDS011;39836;52.754;6.866;2023-06-26T10:20:21;9.65;;;2.58;;
53925;SDS011;39836;52.754;6.866;2023-06-26T10:22:47;6.43;;;2.25;;
53925;SDS011;39836;52.754;6.866;2023-06-26T10:25:16;4.55;;;1.90;;
53925;SDS011;39836;52.754;6.866;2023-06-26T10:27:44;8.00;;;2.22;;
53925;SDS011;39836;52.754;6.866;2023-06-26T10:30:14;6.35;;;2.05;;
53925;SDS011;39836;52.754;6.866;2023-06-26T10:32:44;5.80;;;2.03;;
53925;SDS011;39836;52.754;6.866;2023-06-26T10:35:11;4.30;;;2.00;;
53925;SDS011;39836;52.754;6.866;2023-06-26T10:37:41;9.88;;;2.47;;
53925;SDS011;39836;52.754;6.866;2023-06-26T10:40:11;6.90;;;2.40;;
53925;SDS011;39836;52.754;6.866;2023-06-26T10:42:38;9.45;;;2.25;;
53925;SDS011;39836;52.754;6.866;2023-06-26T10:47:40;4.00;;;1.98;;
53925;SDS011;39836;52.754;6.866;2023-06-26T10:50:17;8.85;;;2.60;;
53925;SDS011;39836;52.754;6.866;2023-06-26T10:55:35;6.15;;;1.90;;
53925;SDS011;39836;52.754;6.866;2023-06-26T10:58:01;9.82;;;2.10;;
53925;SDS011;39836;52.754;6.866;2023-06-26T11:00:27;6.22;;;2.10;;
53925;SDS011;39836;52.754;6.866;2023-06-26T11:02:53;6.53;;;2.42;;
53925;SDS011;39836;52.754;6.866;2023-06-26T11:05:25;6.35;;;1.90;;
53925;SDS011;39836;52.754;6.866;2023-06-26T11:08:02;7.95;;;2.30;;
53925;SDS011;39836;52.754;6.866;2023-06-26T11:10:50;6.13;;;1.88;;
53925;SDS011;39836;52.754;6.866;2023-06-26T11:13:17;9.65;;;2.08;;
53925;SDS011;39836;52.754;6.866;2023-06-26T11:15:44;10.68;;;2.33;;
53925;SDS011;39836;52.754;6.866;2023-06-26T11:18:14;6.15;;;1.70;;
53925;SDS011;39836;52.754;6.866;2023-06-26T11:20:40;4.93;;;2.00;;
53925;SDS011;39836;52.754;6.866;2023-06-26T11:23:07;8.43;;;2.63;;
53925;SDS011;39836;52.754;6.866;2023-06-26T11:25:37;5.72;;;1.90;;
53925;SDS011;39836;52.754;6.866;2023-06-26T11:28:03;5.93;;;2.17;;
53925;SDS011;39836;52.754;6.866;2023-06-26T11:30:30;4.82;;;1.52;;
53925;SDS011;39836;52.754;6.866;2023-06-26T11:33:06;6.85;;;1.50;;
53925;SDS011;39836;52.754;6.866;2023-06-26T11:35:34;5.57;;;1.98;;
53925;SDS011;39836;52.754;6.866;2023-06-26T11:38:01;6.47;;;1.73;;
53925;SDS011;39836;52.754;6.866;2023-06-26T11:40:34;7.07;;;1.73;;
53925;SDS011;39836;52.754;6.866;2023-06-26T11:43:02;8.73;;;2.10;;
53925;SDS011;39836;52.754;6.866;2023-06-26T11:45:29;5.03;;;1.70;;
53925;SDS011;39836;52.754;6.866;2023-06-26T11:47:56;7.97;;;2.20;;
53925;SDS011;39836;52.754;6.866;2023-06-26T11:50:22;7.28;;;1.90;;
53925;SDS011;39836;52.754;6.866;2023-06-26T11:52:55;4.80;;;1.52;;
53925;SDS011;39836;52.754;6.866;2023-06-26T11:55:22;6.15;;;1.45;;
53925;SDS011;39836;52.754;6.866;2023-06-26T11:57:55;7.25;;;1.98;;
53925;SDS011;39836;52.754;6.866;2023-06-26T12:00:22;6.78;;;1.77;;
53925;SDS011;39836;52.754;6.866;2023-06-26T12:02:48;7.70;;;1.73;;
53925;SDS011;39836;52.754;6.866;2023-06-26T12:05:17;9.75;;;2.00;;
53925;SDS011;39836;52.754;6.866;2023-06-26T12:07:44;4.53;;;1.45;;
53925;SDS011;39836;52.754;6.866;2023-06-26T12:10:12;5.30;;;1.45;;
53925;SDS011;39836;52.754;6.866;2023-06-26T12:12:39;6.57;;;1.30;;
53925;SDS011;39836;52.754;6.866;2023-06-26T12:15:06;5.50;;;1.92;;
53925;SDS011;39836;52.754;6.866;2023-06-26T12:17:33;6.85;;;1.88;;
53925;SDS011;39836;52.754;6.866;2023-06-26T12:20:04;8.60;;;2.00;;
53925;SDS011;39836;52.754;6.866;2023-06-26T12:22:34;7.18;;;2.08;;
53925;SDS011;39836;52.754;6.866;2023-06-26T12:25:00;4.88;;;1.30;;
53925;SDS011;39836;52.754;6.866;2023-06-26T12:27:27;12.07;;;2.00;;
53925;SDS011;39836;52.754;6.866;2023-06-26T12:29:54;6.63;;;1.80;;
53925;SDS011;39836;52.754;6.866;2023-06-26T12:32:23;8.55;;;1.60;;
53925;SDS011;39836;52.754;6.866;2023-06-26T12:34:51;5.95;;;1.60;;
53925;SDS011;39836;52.754;6.866;2023-06-26T12:37:16;9.80;;;1.30;;
53925;SDS011;39836;52.754;6.866;2023-06-26T12:42:19;4.40;;;1.10;;
53925;SDS011;39836;52.754;6.866;2023-06-26T12:44:45;7.75;;;1.50;;
53925;SDS011;39836;52.754;6.866;2023-06-26T12:47:12;9.45;;;1.73;;
53925;SDS011;39836;52.754;6.866;2023-06-26T12:49:40;8.55;;;1.50;;
53925;SDS011;39836;52.754;6.866;2023-06-26T12:52:14;11.98;;;1.85;;
53925;SDS011;39836;52.754;6.866;2023-06-26T12:54:41;5.50;;;1.52;;
53925;SDS011;39836;52.754;6.866;2023-06-26T12:57:08;4.47;;;1.50;;
53925;SDS011;39836;52.754;6.866;2023-06-26T12:59:37;15.18;;;1.88;;
53925;SDS011;39836;52.754;6.866;2023-06-26T13:02:03;8.68;;;1.48;;
53925;SDS011;39836;52.754;6.866;2023-06-26T13:04:29;7.68;;;1.70;;
53925;SDS011;39836;52.754;6.866;2023-06-26T13:06:55;7.28;;;1.30;;
53925;SDS011;39836;52.754;6.866;2023-06-26T13:09:22;8.55;;;1.50;;
53925;SDS011;39836;52.754;6.866;2023-06-26T13:11:50;8.15;;;1.20;;
53925;SDS011;39836;52.754;6.866;2023-06-26T13:14:18;8.30;;;1.55;;
53925;SDS011;39836;52.754;6.866;2023-06-26T13:16:45;4.82;;;1.45;;
53925;SDS011;39836;52.754;6.866;2023-06-26T13:19:11;3.60;;;1.17;;
53925;SDS011;39836;52.754;6.866;2023-06-26T13:21:37;6.35;;;1.30;;
53925;SDS011;39836;52.754;6.866;2023-06-26T13:24:03;8.90;;;2.20;;
53925;SDS011;39836;52.754;6.866;2023-06-26T13:26:30;4.50;;;1.02;;
53925;SDS011;39836;52.754;6.866;2023-06-26T13:28:56;6.68;;;1.40;;
53925;SDS011;39836;52.754;6.866;2023-06-26T13:31:22;10.88;;;2.05;;
53925;SDS011;39836;52.754;6.866;2023-06-26T13:33:48;5.18;;;1.30;;
53925;SDS011;39836;52.754;6.866;2023-06-26T13:36:14;6.50;;;1.38;;
53925;SDS011;39836;52.754;6.866;2023-06-26T13:38:40;7.75;;;1.60;;
53925;SDS011;39836;52.754;6.866;2023-06-26T13:41:06;11.38;;;1.48;;
53925;SDS011;39836;52.754;6.866;2023-06-26T13:43:32;9.30;;;1.80;;
53925;SDS011;39836;52.754;6.866;2023-06-26T13:45:58;5.70;;;1.52;;
53925;SDS011;39836;52.754;6.866;2023-06-26T13:48:24;9.82;;;1.30;;
53925;SDS011;39836;52.754;6.866;2023-06-26T13:50:50;2.90;;;1.08;;
53925;SDS011;39836;52.754;6.866;2023-06-26T13:53:16;18.73;;;2.47;;
53925;SDS011;39836;52.754;6.866;2023-06-26T13:55:42;13.70;;;1.80;;
53925;SDS011;39836;52.754;6.866;2023-06-26T13:58:08;4.90;;;1.55;;
53925;SDS011;39836;52.754;6.866;2023-06-26T14:00:34;8.45;;;1.38;;
53925;SDS011;39836;52.754;6.866;2023-06-26T14:03:01;6.80;;;1.30;;
53925;SDS011;39836;52.754;6.866;2023-06-26T14:05:31;7.70;;;1.50;;
53925;SDS011;39836;52.754;6.866;2023-06-26T14:08:01;9.15;;;1.75;;
53925;SDS011;39836;52.754;6.866;2023-06-26T14:10:29;4.50;;;1.13;;
53925;SDS011;39836;52.754;6.866;2023-06-26T14:12:56;5.13;;;1.40;;
53925;SDS011;39836;52.754;6.866;2023-06-26T14:15:21;5.40;;;1.10;;
53925;SDS011;39836;52.754;6.866;2023-06-26T14:17:47;9.00;;;1.50;;
53925;SDS011;39836;52.754;6.866;2023-06-26T14:20:15;6.53;;;1.38;;
53925;SDS011;39836;52.754;6.866;2023-06-26T14:22:42;5.35;;;1.45;;
53925;SDS011;39836;52.754;6.866;2023-06-26T14:25:12;7.43;;;1.25;;
53925;SDS011;39836;52.754;6.866;2023-06-26T14:27:38;9.00;;;1.55;;
53925;SDS011;39836;52.754;6.866;2023-06-26T14:30:04;5.57;;;1.40;;
53925;SDS011;39836;52.754;6.866;2023-06-26T14:32:32;7.30;;;1.40;;
53925;SDS011;39836;52.754;6.866;2023-06-26T14:34:58;6.88;;;1.40;;
53925;SDS011;39836;52.754;6.866;2023-06-26T14:37:24;10.23;;;1.85;;
53925;SDS011;39836;52.754;6.866;2023-06-26T14:39:50;7.47;;;1.80;;
53925;SDS011;39836;52.754;6.866;2023-06-26T14:42:16;7.10;;;1.52;;
53925;SDS011;39836;52.754;6.866;2023-06-26T14:44:42;11.23;;;1.52;;
53925;SDS011;39836;52.754;6.866;2023-06-26T14:47:08;5.82;;;1.67;;
53925;SDS011;39836;52.754;6.866;2023-06-26T14:49:33;9.93;;;1.60;;
53925;SDS011;39836;52.754;6.866;2023-06-26T14:51:59;3.40;;;1.35;;
53925;SDS011;39836;52.754;6.866;2023-06-26T14:54:25;9.70;;;1.65;;
53925;SDS011;39836;52.754;6.866;2023-06-26T14:56:50;7.75;;;1.40;;
53925;SDS011;39836;52.754;6.866;2023-06-26T14:59:16;6.95;;;1.35;;
53925;SDS011;39836;52.754;6.866;2023-06-26T15:01:42;4.80;;;1.17;;
53925;SDS011;39836;52.754;6.866;2023-06-26T15:04:07;5.85;;;1.45;;
53925;SDS011;39836;52.754;6.866;2023-06-26T15:06:35;6.28;;;1.65;;
53925;SDS011;39836;52.754;6.866;2023-06-26T15:09:00;5.45;;;1.63;;
53925;SDS011;39836;52.754;6.866;2023-06-26T15:11:27;4.18;;;1.23;;
53925;SDS011;39836;52.754;6.866;2023-06-26T15:13:55;4.93;;;1.10;;
53925;SDS011;39836;52.754;6.866;2023-06-26T15:16:21;5.70;;;1.50;;
53925;SDS011;39836;52.754;6.866;2023-06-26T15:18:47;5.45;;;1.30;;
53925;SDS011;39836;52.754;6.866;2023-06-26T15:21:13;6.68;;;1.40;;
53925;SDS011;39836;52.754;6.866;2023-06-26T15:23:38;5.38;;;1.20;;
53925;SDS011;39836;52.754;6.866;2023-06-26T15:26:04;2.30;;;0.93;;
53925;SDS011;39836;52.754;6.866;2023-06-26T15:28:30;5.30;;;1.10;;
53925;SDS011;39836;52.754;6.866;2023-06-26T15:30:56;6.40;;;1.48;;
53925;SDS011;39836;52.754;6.866;2023-06-26T15:33:21;5.03;;;1.10;;
53925;SDS011;39836;52.754;6.866;2023-06-26T15:35:47;5.28;;;1.15;;
53925;SDS011;39836;52.754;6.866;2023-06-26T15:38:13;5.22;;;1.17;;
53925;SDS011;39836;52.754;6.866;2023-06-26T15:40:38;4.07;;;1.00;;
53925;SDS011;39836;52.754;6.866;2023-06-26T15:43:04;4.38;;;1.30;;
53925;SDS011;39836;52.754;6.866;2023-06-26T15:45:30;6.15;;;1.15;;
53925;SDS011;39836;52.754;6.866;2023-06-26T15:47:55;6.35;;;1.20;;
53925;SDS011;39836;52.754;6.866;2023-06-26T15:50:21;6.63;;;1.25;;
53925;SDS011;39836;52.754;6.866;2023-06-26T15:52:47;7.60;;;1.45;;
53925;SDS011;39836;52.754;6.866;2023-06-26T15:55:14;4.32;;;1.00;;
53925;SDS011;39836;52.754;6.866;2023-06-26T15:57:40;10.68;;;1.50;;
53925;SDS011;39836;52.754;6.866;2023-06-26T16:00:06;5.05;;;1.10;;
53925;SDS011;39836;52.754;6.866;2023-06-26T16:02:32;3.40;;;1.13;;
53925;SDS011;39836;52.754;6.866;2023-06-26T16:04:59;6.60;;;1.60;;
53925;SDS011;39836;52.754;6.866;2023-06-26T16:07:25;5.03;;;1.40;;
53925;SDS011;39836;52.754;6.866;2023-06-26T16:09:54;7.05;;;1.88;;
53925;SDS011;39836;52.754;6.866;2023-06-26T16:12:20;3.60;;;1.00;;
53925;SDS011;39836;52.754;6.866;2023-06-26T16:14:46;5.88;;;1.33;;
53925;SDS011;39836;52.754;6.866;2023-06-26T16:17:11;4.03;;;1.23;;
53925;SDS011;39836;52.754;6.866;2023-06-26T16:19:37;4.38;;;1.10;;
53925;SDS011;39836;52.754;6.866;2023-06-26T16:22:03;6.20;;;1.58;;
53925;SDS011;39836;52.754;6.866;2023-06-26T16:24:30;8.02;;;1.63;;
53925;SDS011;39836;52.754;6.866;2023-06-26T16:26:57;6.05;;;1.40;;
53925;SDS011;39836;52.754;6.866;2023-06-26T16:29:23;7.97;;;1.60;;
53925;SDS011;39836;52.754;6.866;2023-06-26T16:31:49;9.00;;;1.45;;
53925;SDS011;39836;52.754;6.866;2023-06-26T16:34:15;12.43;;;1.98;;
53925;SDS011;39836;52.754;6.866;2023-06-26T16:36:41;9.88;;;1.80;;
53925;SDS011;39836;52.754;6.866;2023-06-26T16:39:08;6.38;;;1.75;;
53925;SDS011;39836;52.754;6.866;2023-06-26T16:41:34;7.60;;;1.77;;
53925;SDS011;39836;52.754;6.866;2023-06-26T16:43:59;4.25;;;1.33;;
53925;SDS011;39836;52.754;6.866;2023-06-26T16:46:25;5.05;;;1.40;;
53925;SDS011;39836;52.754;6.866;2023-06-26T16:48:51;7.53;;;1.80;;
53925;SDS011;39836;52.754;6.866;2023-06-26T16:51:21;9.88;;;1.85;;
53925;SDS011;39836;52.754;6.866;2023-06-26T16:53:48;7.45;;;2.17;;
53925;SDS011;39836;52.754;6.866;2023-06-26T16:56:13;6.60;;;1.85;;
53925;SDS011;39836;52.754;6.866;2023-06-26T16:58:39;9.68;;;1.85;;
53925;SDS011;39836;52.754;6.866;2023-06-26T17:01:04;7.80;;;1.50;;
53925;SDS011;39836;52.754;6.866;2023-06-26T17:03:30;4.82;;;1.42;;
53925;SDS011;39836;52.754;6.866;2023-06-26T17:05:56;6.10;;;1.55;;
53925;SDS011;39836;52.754;6.866;2023-06-26T17:08:21;7.03;;;2.13;;
53925;SDS011;39836;52.754;6.866;2023-06-26T17:10:47;7.93;;;1.75;;
53925;SDS011;39836;52.754;6.866;2023-06-26T17:13:13;3.97;;;1.50;;
53925;SDS011;39836;52.754;6.866;2023-06-26T17:15:39;6.57;;;1.70;;
53925;SDS011;39836;52.754;6.866;2023-06-26T17:18:04;7.88;;;2.03;;
53925;SDS011;39836;52.754;6.866;2023-06-26T17:20:30;5.95;;;1.95;;
53925;SDS011;39836;52.754;6.866;2023-06-26T17:22:56;9.27;;;1.80;;
53925;SDS011;39836;52.754;6.866;2023-06-26T17:25:23;8.40;;;1.73;;
53925;SDS011;39836;52.754;6.866;2023-06-26T17:27:49;5.10;;;1.60;;
53925;SDS011;39836;52.754;6.866;2023-06-26T17:30:15;3.47;;;1.20;;
53925;SDS011;39836;52.754;6.866;2023-06-26T17:32:41;4.35;;;1.52;;
53925;SDS011;39836;52.754;6.866;2023-06-26T17:35:08;4.07;;;1.40;;
53925;SDS011;39836;52.754;6.866;2023-06-26T17:37:34;10.18;;;1.67;;
53925;SDS011;39836;52.754;6.866;2023-06-26T17:40:00;3.70;;;1.45;;
53925;SDS011;39836;52.754;6.866;2023-06-26T17:42:26;3.83;;;1.20;;
53925;SDS011;39836;52.754;6.866;2023-06-26T17:44:51;12.93;;;1.67;;
53925;SDS011;39836;52.754;6.866;2023-06-26T17:47:17;6.38;;;1.20;;
53925;SDS011;39836;52.754;6.866;2023-06-26T17:49:43;6.63;;;1.25;;
53925;SDS011;39836;52.754;6.866;2023-06-26T17:52:08;3.90;;;1.20;;
53925;SDS011;39836;52.754;6.866;2023-06-26T17:54:34;7.00;;;1.50;;
53925;SDS011;39836;52.754;6.866;2023-06-26T17:57:00;7.40;;;1.55;;
53925;SDS011;39836;52.754;6.866;2023-06-26T17:59:27;4.03;;;1.20;;
53925;SDS011;39836;52.754;6.866;2023-06-26T18:01:53;9.75;;;2.10;;
53925;SDS011;39836;52.754;6.866;2023-06-26T18:04:25;6.60;;;1.92;;
53925;SDS011;39836;52.754;6.866;2023-06-26T18:06:51;5.32;;;1.40;;
53925;SDS011;39836;52.754;6.866;2023-06-26T18:09:17;5.80;;;1.33;;
53925;SDS011;39836;52.754;6.866;2023-06-26T18:11:44;5.10;;;1.60;;
53925;SDS011;39836;52.754;6.866;2023-06-26T18:14:10;5.45;;;1.55;;
